createdAt,value
2018-01-16T00:00:38.439Z,97452.82
2018-01-16T00:03:05.906Z,97457.36
2018-01-16T00:05:33.500Z,97451.89
2018-01-16T00:08:00.964Z,97451.63
2018-01-16T00:10:28.431Z,97452.20
2018-01-16T00:12:56.362Z,97443.80
2018-01-16T00:15:23.828Z,97459.10
2018-01-16T00:17:51.293Z,97469.27
2018-01-16T00:20:19.048Z,97481.86
2018-01-16T00:22:46.504Z,97504.74
2018-01-16T00:25:14.176Z,97489.47
2018-01-16T00:27:41.860Z,97459.44
2018-01-16T00:30:09.327Z,97463.28
2018-01-16T00:32:36.792Z,97468.66
2018-01-16T00:35:04.634Z,97459.81
2018-01-16T00:37:32.085Z,97424.23
2018-01-16T00:39:59.540Z,97442.08
2018-01-16T00:42:27.425Z,97459.44
2018-01-16T00:44:54.889Z,97439.67
2018-01-16T00:47:22.740Z,97471.73
2018-01-16T00:49:50.716Z,97471.55
2018-01-16T00:52:18.179Z,97445.56
2018-01-16T00:54:45.644Z,97469.28
2018-01-16T00:57:13.434Z,97467.02
2018-01-16T00:59:40.911Z,97452.38
2018-01-16T01:02:08.369Z,97435.22
2018-01-16T01:04:36.084Z,97442.20
2018-01-16T01:07:03.540Z,97450.25
2018-01-16T01:09:31.014Z,97445.85
2018-01-16T01:11:59.322Z,97448.60
2018-01-16T01:14:26.788Z,97430.17
2018-01-16T01:16:54.251Z,97436.07
2018-01-16T01:19:22.077Z,97433.11
2018-01-16T01:21:49.540Z,97434.11
2018-01-16T01:24:17.006Z,97425.39
2018-01-16T01:26:44.984Z,97429.61
2018-01-16T01:29:12.453Z,97412.77
2018-01-16T01:31:39.911Z,97412.84
2018-01-16T01:34:07.773Z,97408.77
2018-01-16T01:36:35.235Z,97406.96
2018-01-16T01:39:02.703Z,97404.85
2018-01-16T01:41:30.448Z,97399.38
2018-01-16T01:43:57.905Z,97402.25
2018-01-16T01:46:25.367Z,97399.27
2018-01-16T01:49:04.700Z,97396.47
2018-01-16T01:51:32.156Z,97390.43
2018-01-16T01:53:59.612Z,97395.61
2018-01-16T01:56:27.489Z,97392.30
2018-01-16T01:58:54.956Z,97384.95
2018-01-16T02:01:22.417Z,97382.94
2018-01-16T02:03:50.176Z,97390.98
2018-01-16T02:06:17.645Z,97396.77
2018-01-16T02:08:45.100Z,97386.04
2018-01-16T02:11:12.855Z,97382.14
2018-01-16T02:13:41.317Z,97396.33
2018-01-16T02:16:08.765Z,97400.09
2018-01-16T02:18:36.471Z,97393.84
2018-01-16T02:21:03.933Z,97394.43
2018-01-16T02:23:31.399Z,97408.28
2018-01-16T02:25:59.132Z,97410.94
2018-01-16T02:28:26.596Z,97408.25
2018-01-16T02:30:54.109Z,97398.60
2018-01-16T02:33:22.145Z,97386.98
2018-01-16T02:35:49.608Z,97367.95
2018-01-16T02:38:17.066Z,97353.56
2018-01-16T02:40:44.834Z,97351.73
2018-01-16T02:43:21.129Z,97339.06
2018-01-16T02:45:48.856Z,97338.31
2018-01-16T02:48:16.321Z,97308.45
2018-01-16T02:50:43.782Z,97308.06
2018-01-16T02:53:11.654Z,97306.33
2018-01-16T02:55:39.112Z,97307.09
2018-01-16T03:04:49.969Z,97317.33
2018-01-16T03:07:17.437Z,97322.48
2018-01-16T03:09:44.888Z,97323.55
2018-01-16T03:12:12.628Z,97311.42
2018-01-16T03:14:40.481Z,97305.36
2018-01-16T03:17:07.937Z,97307.94
2018-01-16T03:19:35.924Z,97300.12
2018-01-16T03:22:03.383Z,97282.09
2018-01-16T03:24:30.836Z,97270.07
2018-01-16T03:26:58.625Z,97284.36
2018-01-16T03:29:26.089Z,97288.22
2018-01-16T03:31:53.552Z,97280.45
2018-01-16T03:34:21.321Z,97269.84
2018-01-16T03:36:48.788Z,97285.44
2018-01-16T03:39:16.251Z,97297.45
2018-01-16T03:41:43.985Z,97302.61
2018-01-16T03:44:11.447Z,97287.47
2018-01-16T03:46:38.911Z,97277.04
2018-01-16T03:49:06.684Z,97276.58
2018-01-16T03:51:34.145Z,97274.45
2018-01-16T03:54:01.605Z,97272.92
2018-01-16T03:56:29.673Z,97264.16
2018-01-16T03:58:57.135Z,97265.23
2018-01-16T04:01:24.589Z,97242.48
2018-01-16T04:03:52.665Z,97235.72
2018-01-16T04:06:20.124Z,97224.98
2018-01-16T04:08:47.597Z,97208.09
2018-01-16T04:11:15.356Z,97213.52
2018-01-16T04:20:27.099Z,97195.62
2018-01-16T04:22:54.555Z,97181.58
2018-01-16T04:25:22.012Z,97182.75
2018-01-16T04:27:49.792Z,97186.48
2018-01-16T04:30:17.254Z,97176.61
2018-01-16T04:32:44.718Z,97167.30
2018-01-16T04:35:12.485Z,97153.39
2018-01-16T04:37:39.945Z,97154.53
2018-01-16T04:40:07.413Z,97155.23
2018-01-16T04:42:35.133Z,97145.38
2018-01-16T04:45:02.588Z,97123.65
2018-01-16T04:47:30.037Z,97148.64
2018-01-16T04:49:57.851Z,97151.13
2018-01-16T04:52:25.316Z,97140.08
2018-01-16T04:54:53.957Z,97154.62
2018-01-16T04:57:21.779Z,97145.20
2018-01-16T04:59:49.241Z,97121.74
2018-01-16T05:02:16.737Z,97122.27
2018-01-16T05:04:44.460Z,97132.69
2018-01-16T05:07:11.929Z,97120.42
2018-01-16T05:09:39.391Z,97116.39
2018-01-16T05:12:07.440Z,97127.61
2018-01-16T05:14:34.905Z,97124.66
2018-01-16T05:17:02.670Z,97125.03
2018-01-16T05:19:30.600Z,97117.63
2018-01-16T05:28:42.497Z,97113.39
2018-01-16T05:31:09.956Z,97097.78
2018-01-16T05:33:37.418Z,97108.81
2018-01-16T05:36:05.494Z,97103.58
2018-01-16T05:38:32.963Z,97091.06
2018-01-16T05:41:00.442Z,97084.21
2018-01-16T05:43:28.176Z,97089.25
2018-01-16T05:45:55.639Z,97093.97
2018-01-16T05:48:23.110Z,97091.73
2018-01-16T05:50:50.864Z,97079.20
2018-01-16T05:53:18.323Z,97085.64
2018-01-16T05:55:45.788Z,97088.02
2018-01-16T05:58:13.552Z,97079.22
2018-01-16T06:00:41.013Z,97096.58
2018-01-16T06:03:08.468Z,97065.89
2018-01-16T06:05:36.232Z,97099.66
2018-01-16T06:08:03.684Z,97092.05
2018-01-16T06:10:31.145Z,97065.28
2018-01-16T06:12:58.937Z,97063.20
2018-01-16T06:15:26.390Z,97066.06
2018-01-16T06:17:53.851Z,97084.50
2018-01-16T06:20:21.608Z,97058.91
2018-01-16T06:22:51.314Z,97073.92
2018-01-16T06:25:18.765Z,97065.22
2018-01-16T06:27:46.449Z,97062.15
2018-01-16T06:30:13.901Z,97075.05
2018-01-16T06:32:41.401Z,97068.36
2018-01-16T06:35:09.130Z,97061.13
2018-01-16T06:37:36.612Z,97065.57
2018-01-16T06:40:04.077Z,97064.78
2018-01-16T06:42:31.821Z,97066.19
2018-01-16T06:44:59.288Z,97076.09
2018-01-16T06:47:26.753Z,97060.39
2018-01-16T06:49:54.860Z,97059.68
2018-01-16T06:52:22.319Z,97065.64
2018-01-16T06:54:49.779Z,97054.29
2018-01-16T06:57:17.807Z,97047.94
2018-01-16T06:59:45.266Z,97042.61
2018-01-16T07:02:12.717Z,97036.16
2018-01-16T07:04:40.491Z,97021.59
2018-01-16T07:07:07.962Z,97019.32
2018-01-16T07:09:35.416Z,97011.61
2018-01-16T07:12:03.190Z,97001.53
2018-01-16T07:14:30.650Z,96996.94
2018-01-16T07:16:58.116Z,96990.84
2018-01-16T07:19:25.873Z,96991.20
2018-01-16T07:21:53.337Z,96988.49
2018-01-16T07:24:21.439Z,96983.74
2018-01-16T07:26:49.173Z,96980.95
2018-01-16T07:29:16.645Z,96979.84
2018-01-16T07:31:44.110Z,96970.58
2018-01-16T07:34:11.698Z,96964.11
2018-01-16T07:36:39.163Z,96968.84
2018-01-16T07:39:06.633Z,96963.23
2018-01-16T07:41:34.542Z,96974.17
2018-01-16T07:44:02.938Z,96979.59
2018-01-16T07:46:30.391Z,96977.59
2018-01-16T07:48:58.143Z,96980.09
2018-01-16T07:51:25.597Z,96972.32
2018-01-16T07:53:53.057Z,96976.47
2018-01-16T07:56:20.836Z,96984.80
2018-01-16T07:58:48.295Z,97014.42
2018-01-16T08:01:15.756Z,96968.30
2018-01-16T08:03:43.528Z,96993.72
2018-01-16T08:06:10.980Z,96974.26
2018-01-16T08:08:38.448Z,96961.70
2018-01-16T08:11:06.216Z,96959.14
2018-01-16T08:13:33.684Z,96950.08
2018-01-16T08:16:01.140Z,96932.03
2018-01-16T08:18:29.201Z,96910.92
2018-01-16T08:20:56.676Z,96898.75
2018-01-16T08:23:24.131Z,96897.35
2018-01-16T08:25:53.764Z,96885.28
2018-01-16T08:28:21.221Z,96885.32
2018-01-16T08:30:48.680Z,96873.56
2018-01-16T08:33:16.728Z,96873.50
2018-01-16T08:35:44.184Z,96880.92
2018-01-16T08:38:11.640Z,96865.36
2018-01-16T08:40:39.338Z,96866.39
2018-01-16T08:43:06.795Z,96863.69
2018-01-16T08:45:34.251Z,96852.20
2018-01-16T08:48:02.116Z,96848.41
2018-01-16T08:50:29.584Z,96834.23
2018-01-16T08:52:57.050Z,96828.66
2018-01-16T08:55:24.792Z,96829.19
2018-01-16T08:57:52.262Z,96828.72
2018-01-16T09:00:19.723Z,96848.09
2018-01-16T09:02:47.468Z,96841.66
2018-01-16T09:05:14.922Z,96848.48
2018-01-16T09:07:42.380Z,96858.31
2018-01-16T09:10:10.272Z,96879.84
2018-01-16T09:12:37.721Z,96889.21
2018-01-16T09:15:05.173Z,96876.09
2018-01-16T09:17:33.461Z,96896.91
2018-01-16T09:20:00.920Z,96885.91
2018-01-16T09:22:28.371Z,96858.02
2018-01-16T09:24:56.364Z,96859.73
2018-01-16T09:27:24.301Z,96890.30
2018-01-16T09:29:51.750Z,96876.44
2018-01-16T09:32:19.772Z,96905.20
2018-01-16T09:34:47.229Z,96912.30
2018-01-16T09:37:14.684Z,96866.81
2018-01-16T09:39:42.361Z,96885.72
2018-01-16T09:42:09.816Z,96888.22
2018-01-16T09:44:37.276Z,96858.03
2018-01-16T09:47:05.128Z,96853.32
2018-01-16T09:49:32.589Z,96844.89
2018-01-16T09:52:00.044Z,96845.11
2018-01-16T09:54:27.832Z,96798.63
2018-01-16T09:56:55.289Z,96786.30
2018-01-16T09:59:22.751Z,96776.06
2018-01-16T10:01:50.499Z,96772.26
2018-01-16T10:04:17.968Z,96777.97
2018-01-16T10:06:45.418Z,96781.05
2018-01-16T10:09:13.193Z,96785.92
2018-01-16T10:11:40.644Z,96766.06
2018-01-16T10:14:08.098Z,96778.59
2018-01-16T10:16:35.877Z,96767.77
2018-01-16T10:19:03.492Z,96760.49
2018-01-16T10:21:30.953Z,96749.23
2018-01-16T10:23:58.703Z,96771.69
2018-01-16T10:26:26.182Z,96758.38
2018-01-16T10:28:55.716Z,96745.53
2018-01-16T10:31:23.440Z,96744.20
2018-01-16T10:33:50.893Z,96765.34
2018-01-16T10:36:18.341Z,96765.20
2018-01-16T10:38:46.093Z,96768.50
2018-01-16T10:41:13.550Z,96783.61
2018-01-16T10:43:41.004Z,96764.21
2018-01-16T10:46:08.776Z,96737.03
2018-01-16T10:48:36.579Z,96771.81
2018-01-16T10:51:04.030Z,96753.72
2018-01-16T10:53:31.780Z,96754.87
2018-01-16T10:55:59.241Z,96759.56
2018-01-16T10:58:26.703Z,96754.13
2018-01-16T11:00:54.436Z,96747.45
2018-01-16T11:03:21.901Z,96730.01
2018-01-16T11:05:49.360Z,96733.66
2018-01-16T11:08:17.153Z,96726.55
2018-01-16T11:10:44.609Z,96700.25
2018-01-16T11:13:12.069Z,96715.78
2018-01-16T11:15:39.840Z,96712.46
2018-01-16T11:18:07.304Z,96713.59
2018-01-16T11:20:34.765Z,96715.05
2018-01-16T11:23:02.833Z,96707.89
2018-01-16T11:25:30.292Z,96699.00
2018-01-16T11:27:57.751Z,96702.50
2018-01-16T11:30:26.745Z,96710.13
2018-01-16T11:32:54.195Z,96709.52
2018-01-16T11:35:21.665Z,96708.59
2018-01-16T11:37:49.437Z,96700.05
2018-01-16T11:40:16.891Z,96695.00
2018-01-16T11:42:44.344Z,96666.06
2018-01-16T11:45:12.434Z,96674.00
2018-01-16T11:47:39.892Z,96656.31
2018-01-16T11:50:07.344Z,96640.23
2018-01-16T11:52:35.736Z,96640.09
2018-01-16T11:55:03.201Z,96650.17
2018-01-16T12:04:14.652Z,96628.22
2018-01-16T12:06:42.112Z,96637.02
2018-01-16T12:09:10.349Z,96677.95
2018-01-16T12:11:38.069Z,96707.99
2018-01-16T12:14:05.528Z,96682.88
2018-01-16T12:16:32.977Z,96637.95
2018-01-16T12:19:00.953Z,96612.41
2018-01-16T12:21:28.393Z,96616.36
2018-01-16T12:23:55.849Z,96610.27
2018-01-16T12:26:23.609Z,96605.50
2018-01-16T12:28:51.081Z,96605.01
2018-01-16T12:31:19.221Z,96597.95
2018-01-16T12:33:46.851Z,96593.72
2018-01-16T12:36:14.311Z,96593.49
2018-01-16T12:38:41.761Z,96600.02
2018-01-16T12:41:09.632Z,96600.13
2018-01-16T12:43:37.091Z,96595.22
2018-01-16T12:46:04.543Z,96587.41
2018-01-16T12:48:32.414Z,96581.42
2018-01-16T12:50:59.867Z,96567.28
2018-01-16T12:53:27.323Z,96555.81
2018-01-16T12:55:55.274Z,96566.14
2018-01-16T12:58:22.724Z,96579.05
2018-01-16T13:00:50.181Z,96567.13
2018-01-16T13:03:18.273Z,96547.28
2018-01-16T13:05:45.724Z,96558.73
2018-01-16T13:08:13.182Z,96546.20
2018-01-16T13:10:41.281Z,96542.86
2018-01-16T13:13:08.740Z,96542.02
2018-01-16T13:15:36.192Z,96538.16
2018-01-16T13:18:03.952Z,96535.16
2018-01-16T13:20:31.409Z,96530.16
2018-01-16T13:22:58.863Z,96531.73
2018-01-16T13:25:26.637Z,96528.19
2018-01-16T13:27:54.096Z,96533.62
2018-01-16T13:30:21.544Z,96534.34
2018-01-16T13:32:50.865Z,96520.70
2018-01-16T13:35:18.316Z,96523.97
2018-01-16T13:37:45.760Z,96521.83
2018-01-16T13:40:13.608Z,96501.13
2018-01-16T13:42:41.040Z,96512.84
2018-01-16T13:45:08.495Z,96494.59
2018-01-16T13:47:36.244Z,96501.11
2018-01-16T13:50:03.696Z,96486.14
2018-01-16T13:52:31.144Z,96481.19
2018-01-16T13:54:58.932Z,96487.98
2018-01-16T13:57:26.400Z,96485.08
2018-01-16T13:59:53.848Z,96495.55
2018-01-16T14:02:21.604Z,96489.39
2018-01-16T14:04:49.060Z,96488.79
2018-01-16T14:07:16.517Z,96491.86
2018-01-16T14:09:44.604Z,96480.80
2018-01-16T14:12:12.061Z,96483.16
2018-01-16T14:14:39.513Z,96508.92
2018-01-16T14:17:07.208Z,96485.03
2018-01-16T14:19:34.681Z,96484.41
2018-01-16T14:22:02.136Z,96496.14
2018-01-16T14:24:30.286Z,96481.11
2018-01-16T14:26:57.742Z,96482.31
2018-01-16T14:29:25.195Z,96493.05
2018-01-16T14:31:52.983Z,96485.75
2018-01-16T14:34:20.806Z,96485.44
2018-01-16T14:36:48.264Z,96491.13
2018-01-16T14:39:16.065Z,96471.83
2018-01-16T14:41:43.512Z,96464.87
2018-01-16T14:44:10.969Z,96446.19
2018-01-16T14:46:38.661Z,96454.69
2018-01-16T14:49:06.114Z,96462.23
2018-01-16T14:51:33.566Z,96467.70
2018-01-16T14:54:01.652Z,96473.95
2018-01-16T14:56:29.114Z,96465.90
2018-01-16T14:58:56.567Z,96473.66
2018-01-16T15:01:24.339Z,96468.12
2018-01-16T15:03:51.798Z,96471.78
2018-01-16T15:06:19.265Z,96470.45
2018-01-16T15:08:47.506Z,96474.20
2018-01-16T15:11:14.956Z,96501.67
2018-01-16T15:13:42.407Z,96505.53
2018-01-16T15:16:10.324Z,96508.95
2018-01-16T15:18:37.776Z,96510.86
2018-01-16T15:21:05.238Z,96505.38
2018-01-16T15:23:33.020Z,96502.44
2018-01-16T15:26:00.480Z,96517.13
2018-01-16T15:28:27.936Z,96534.13
2018-01-16T15:30:55.639Z,96533.21
2018-01-16T15:33:23.117Z,96545.76
2018-01-16T15:35:52.416Z,96552.00
2018-01-16T15:38:20.244Z,116234.60
2018-01-16T15:40:47.708Z,150608.31
2018-01-16T15:43:15.191Z,116234.60
2018-01-16T15:45:42.921Z,116234.60
2018-01-16T15:48:10.388Z,116234.60
2018-01-16T15:50:37.869Z,116234.60
2018-01-16T15:53:05.683Z,116234.60
2018-01-16T15:55:33.160Z,116234.60
2018-01-16T15:58:00.637Z,116234.60
2018-01-16T16:00:28.614Z,116234.60
2018-01-16T16:02:56.085Z,116234.60
2018-01-16T16:05:23.570Z,116234.60
2018-01-16T16:07:51.183Z,116234.60
2018-01-16T16:10:18.655Z,116234.60
2018-01-16T16:12:46.138Z,116234.60
2018-01-16T16:15:13.981Z,116234.60
2018-01-16T16:17:41.464Z,116234.60
2018-01-16T16:20:08.944Z,116234.60
2018-01-16T16:22:36.675Z,116234.60
2018-01-16T16:25:04.148Z,116234.60
2018-01-16T16:27:31.621Z,116234.60
2018-01-16T16:29:59.571Z,116234.60
2018-01-16T16:32:27.040Z,116234.60
2018-01-16T16:34:54.517Z,116234.60
2018-01-16T16:37:22.632Z,116234.60
2018-01-16T16:39:50.116Z,116234.60
2018-01-16T16:42:17.617Z,116234.60
2018-01-16T16:44:45.645Z,116234.60
2018-01-16T16:47:13.121Z,116234.60
2018-01-16T16:49:40.608Z,116234.60
2018-01-16T16:52:08.640Z,116234.60
2018-01-16T16:54:36.112Z,116234.60
2018-01-16T16:57:03.580Z,116234.60
2018-01-16T16:59:31.797Z,116234.60
2018-01-16T17:01:59.276Z,116234.60
2018-01-16T17:04:26.760Z,116234.60
2018-01-16T17:06:54.631Z,116234.60
2018-01-16T17:09:22.108Z,116234.60
2018-01-16T17:11:49.607Z,116234.60
2018-01-16T17:14:17.309Z,116234.60
2018-01-16T17:16:44.811Z,116234.60
2018-01-16T17:19:12.283Z,116234.60
2018-01-16T17:21:40.010Z,116234.60
2018-01-16T17:24:07.591Z,116234.60
2018-01-16T17:26:35.252Z,116234.60
2018-01-16T17:29:03.306Z,116234.60
2018-01-16T17:31:30.786Z,116234.60
2018-01-16T17:33:58.272Z,116234.60
2018-01-16T17:36:26.896Z,116234.60
2018-01-16T17:38:56.396Z,116234.60
2018-01-16T17:41:24.370Z,116234.60
2018-01-16T17:43:52.370Z,116234.60
2018-01-16T17:46:19.848Z,116234.60
2018-01-16T17:48:47.325Z,116234.60
2018-01-16T17:51:15.368Z,116234.60
2018-01-16T17:53:42.886Z,116234.60
2018-01-16T17:56:10.404Z,116234.60
2018-01-16T17:58:38.261Z,116234.60
2018-01-16T18:01:05.733Z,116234.60
2018-01-16T18:03:33.229Z,116234.60
2018-01-16T18:06:01.037Z,116234.60
2018-01-16T18:08:28.514Z,116234.60
2018-01-16T18:10:56.000Z,116234.60
2018-01-16T18:13:24.394Z,116234.60
2018-01-16T18:15:51.873Z,116234.60
2018-01-16T18:18:19.567Z,116234.60
2018-01-16T18:20:47.621Z,116234.60
2018-01-16T18:23:15.101Z,116234.60
2018-01-16T18:25:42.577Z,116234.60
2018-01-16T18:28:10.324Z,116234.60
2018-01-16T18:30:37.836Z,116234.60
2018-01-16T18:33:05.439Z,116234.60
2018-01-16T18:35:33.329Z,116234.60
2018-01-16T18:38:00.856Z,116234.60
2018-01-16T18:40:29.237Z,116234.60
2018-01-16T18:42:56.932Z,116234.60
2018-01-16T18:45:24.402Z,116234.60
2018-01-16T18:47:51.873Z,116234.60
2018-01-16T18:50:19.926Z,116234.60
2018-01-16T18:52:47.441Z,116234.60
2018-01-16T18:55:14.912Z,116234.60
2018-01-16T18:57:42.936Z,116234.60
2018-01-16T19:00:10.406Z,116234.60
2018-01-16T19:02:37.877Z,116234.60
2018-01-16T19:05:06.221Z,116234.60
2018-01-16T19:07:33.701Z,116234.60
2018-01-16T19:10:01.183Z,116234.60
2018-01-16T19:12:29.216Z,116234.60
2018-01-16T19:14:56.678Z,96646.41
2018-01-16T19:17:24.346Z,96657.58
2018-01-16T19:19:52.070Z,96663.88
2018-01-16T19:22:19.520Z,96666.20
2018-01-16T19:24:47.054Z,96672.45
2018-01-16T19:27:14.890Z,96669.09
2018-01-16T19:29:42.444Z,96661.35
2018-01-16T19:32:09.901Z,96660.78
2018-01-16T19:34:37.913Z,96645.53
2018-01-16T19:37:05.361Z,96634.95
2018-01-16T19:39:33.064Z,96614.59
2018-01-16T19:42:01.806Z,96618.28
2018-01-16T19:44:29.272Z,96638.53
2018-01-16T19:46:56.723Z,96635.45
2018-01-16T19:49:24.495Z,96637.90
2018-01-16T19:51:51.962Z,96620.48
2018-01-16T19:54:19.424Z,96613.25
2018-01-16T19:56:47.189Z,96618.98
2018-01-16T19:59:14.714Z,96615.66
2018-01-16T20:01:42.147Z,96617.11
2018-01-16T20:04:09.874Z,96615.97
2018-01-16T20:06:37.342Z,96628.60
2018-01-16T20:09:06.162Z,96624.11
2018-01-16T20:11:35.418Z,96629.91
2018-01-16T20:14:03.403Z,96637.24
2018-01-16T20:16:30.952Z,96632.90
2018-01-16T20:18:58.936Z,96631.13
2018-01-16T20:21:27.132Z,96634.69
2018-01-16T20:23:55.499Z,96634.61
2018-01-16T20:26:25.038Z,96650.09
2018-01-16T20:28:52.712Z,96650.82
2018-01-16T20:31:20.237Z,96649.02
2018-01-16T20:33:47.976Z,96648.97
2018-01-16T20:36:16.376Z,96642.17
2018-01-16T20:38:43.840Z,96634.17
2018-01-16T20:41:11.600Z,96629.88
2018-01-16T20:43:40.358Z,96625.42
2018-01-16T20:46:08.308Z,96631.13
2018-01-16T20:48:36.063Z,96641.87
2018-01-16T20:51:04.054Z,96631.66
2018-01-16T20:53:31.501Z,96628.48
2018-01-16T20:55:59.274Z,96631.63
2018-01-16T20:58:26.927Z,96630.28
2018-01-16T21:00:54.369Z,96620.14
2018-01-16T21:03:22.109Z,96614.94
2018-01-16T21:05:49.795Z,96624.12
2018-01-16T21:08:17.285Z,96619.84
2018-01-16T21:10:45.114Z,96613.55
2018-01-16T21:13:12.569Z,96614.42
2018-01-16T21:15:40.376Z,96608.45
2018-01-16T21:18:08.108Z,96604.26
2018-01-16T21:20:35.793Z,96596.16
2018-01-16T21:23:03.872Z,96590.22
2018-01-16T21:25:31.706Z,96579.83
2018-01-16T21:27:59.220Z,96586.75
2018-01-16T21:30:26.728Z,96581.10
2018-01-16T21:32:55.296Z,96589.13
2018-01-16T21:35:22.735Z,96575.78
2018-01-16T21:37:50.461Z,96582.67
2018-01-16T21:40:18.304Z,96580.88
2018-01-16T21:42:45.776Z,96572.70
2018-01-16T21:45:14.339Z,96571.02
2018-01-16T21:47:42.112Z,96565.41
2018-01-16T21:50:09.560Z,96556.52
2018-01-16T21:52:37.011Z,96562.69
2018-01-16T21:55:04.616Z,96556.06
2018-01-16T21:57:32.094Z,96549.82
2018-01-16T21:59:59.563Z,96547.39
2018-01-16T22:02:27.342Z,96548.19
2018-01-16T22:04:54.802Z,96556.53
2018-01-16T22:07:22.262Z,96569.33
2018-01-16T22:09:50.298Z,96574.11
2018-01-16T22:12:17.757Z,96577.77
2018-01-16T22:14:45.213Z,96567.21
2018-01-16T22:17:12.970Z,96552.29
2018-01-16T22:19:40.449Z,96523.55
2018-01-16T22:22:07.903Z,96519.69
2018-01-16T22:24:35.825Z,96529.88
2018-01-16T22:27:03.275Z,96516.56
2018-01-16T22:29:30.731Z,96529.33
2018-01-16T22:31:59.853Z,96523.01
2018-01-16T22:34:27.295Z,96523.14
2018-01-16T22:36:54.753Z,96540.47
2018-01-16T22:39:22.580Z,96543.58
2018-01-16T22:41:50.025Z,96557.06
2018-01-16T22:44:17.477Z,96562.56
2018-01-16T22:46:46.192Z,96569.11
2018-01-16T22:49:13.657Z,96574.38
2018-01-16T22:51:41.107Z,96594.10
2018-01-16T22:54:08.876Z,96593.06
2018-01-16T22:56:36.321Z,96602.63
2018-01-16T22:59:03.765Z,96613.36
2018-01-16T23:01:31.561Z,96633.95
2018-01-16T23:03:59.014Z,96664.77
2018-01-16T23:06:26.457Z,96671.91
2018-01-16T23:08:54.239Z,96680.42
2018-01-16T23:11:21.685Z,96694.60
2018-01-16T23:13:49.142Z,96686.95
2018-01-16T23:16:17.172Z,96686.95
2018-01-16T23:18:44.616Z,96678.77
2018-01-16T23:21:12.060Z,96665.30
2018-01-16T23:23:39.936Z,96664.33
2018-01-16T23:26:07.384Z,96659.20
2018-01-16T23:28:34.829Z,96649.02
2018-01-16T23:31:02.969Z,96656.30
2018-01-16T23:33:30.429Z,96621.53
2018-01-16T23:35:57.884Z,96608.98
2018-01-16T23:38:25.849Z,96616.94
2018-01-16T23:40:53.300Z,96620.19
2018-01-16T23:43:20.744Z,96620.16
2018-01-16T23:45:48.597Z,96612.08
2018-01-16T23:48:16.976Z,96610.67
2018-01-16T23:50:44.417Z,96605.22
2018-01-16T23:53:12.486Z,96604.91
2018-01-16T23:55:39.932Z,96597.09
2018-01-16T23:58:07.385Z,96599.75
